Terminal Aerodrome Forecast
Issued by NWS

Home | Current Version | Previous Version | Text Only | Print | Product List | Glossary On
Versions: 1 2 3 4 5 6 7 8 9 10 11 12 13
000
FTUS42 KGSP 251133
TAFHKY
TAF
KHKY 251133Z 2512/2612 21006KT P6SM BKN250
     FM251900 19007KT P6SM BKN040
     FM252000 18006KT P6SM BKN045 PROB30 2608/2611 2SM -SHRA OVC010
     FM261100 16006KT P6SM OVC008 PROB30 2611/2612 2SM -SHRA OVC008=

USA.gov is the U.S. government's official web portal to all federal, state and local government web resources and services.